createdAt,value
2018-09-16T00:00:18.025Z,0.00
2018-09-16T00:01:18.005Z,0.00
2018-09-16T00:02:17.989Z,0.00
2018-09-16T00:03:17.967Z,0.00
2018-09-16T00:04:17.948Z,0.00
2018-09-16T00:05:17.932Z,0.00
2018-09-16T00:06:17.912Z,0.00
2018-09-16T00:07:17.890Z,0.00
2018-09-16T00:08:17.871Z,0.00
2018-09-16T00:09:17.854Z,0.00
2018-09-16T00:10:17.845Z,0.00
2018-09-16T00:11:17.817Z,0.00
2018-09-16T00:12:17.796Z,0.00
2018-09-16T00:13:17.785Z,0.00
2018-09-16T00:14:17.758Z,0.00
2018-09-16T00:15:17.739Z,0.00
2018-09-16T00:16:17.721Z,0.00
2018-09-16T00:17:17.701Z,0.00
2018-09-16T00:18:17.690Z,0.00
2018-09-16T00:19:17.665Z,0.00
2018-09-16T00:20:17.652Z,0.00
2018-09-16T00:21:17.625Z,0.00
2018-09-16T00:22:17.606Z,0.00
2018-09-16T00:23:17.587Z,0.00
2018-09-16T00:24:17.570Z,0.00
2018-09-16T00:25:17.549Z,0.00
2018-09-16T00:26:17.543Z,0.00
2018-09-16T00:27:17.517Z,0.00
2018-09-16T00:28:17.533Z,0.00
2018-09-16T00:29:17.479Z,0.00
2018-09-16T00:30:17.457Z,0.00
2018-09-16T00:31:17.439Z,0.00
2018-09-16T00:32:17.419Z,0.00
2018-09-16T00:33:17.398Z,0.00
2018-09-16T00:34:17.388Z,0.00
2018-09-16T00:35:17.362Z,0.00
2018-09-16T00:36:17.340Z,0.00
2018-09-16T00:37:17.326Z,0.00
2018-09-16T00:38:17.306Z,0.00
2018-09-16T00:39:17.284Z,0.00
2018-09-16T00:40:17.265Z,0.00
2018-09-16T00:41:17.248Z,0.00
2018-09-16T00:42:17.235Z,0.00
2018-09-16T00:43:17.208Z,0.00
2018-09-16T00:44:17.192Z,0.00
2018-09-16T00:45:17.175Z,0.00
2018-09-16T00:46:17.151Z,0.00
2018-09-16T00:47:17.133Z,0.00
2018-09-16T00:48:17.112Z,0.00
2018-09-16T00:49:17.092Z,0.00
2018-09-16T00:50:17.076Z,0.00
2018-09-16T00:51:17.057Z,0.00
2018-09-16T00:52:17.037Z,0.00
2018-09-16T00:53:17.018Z,0.00
2018-09-16T00:54:17.006Z,0.00
2018-09-16T00:55:16.978Z,0.00
2018-09-16T00:56:16.959Z,0.00
2018-09-16T00:57:16.942Z,0.00
2018-09-16T00:58:16.920Z,0.00
2018-09-16T00:59:16.901Z,0.00
2018-09-16T01:00:16.882Z,0.00
2018-09-16T01:01:16.862Z,0.00
2018-09-16T01:02:16.843Z,0.00
2018-09-16T01:03:16.825Z,0.00
2018-09-16T01:04:16.805Z,0.00
2018-09-16T01:05:16.785Z,0.00
2018-09-16T01:06:16.767Z,0.00
2018-09-16T01:07:16.748Z,0.00
2018-09-16T01:08:16.728Z,0.00
2018-09-16T01:09:16.710Z,0.00
2018-09-16T01:10:16.692Z,0.00
2018-09-16T01:11:16.672Z,0.00
2018-09-16T01:12:16.653Z,0.00
2018-09-16T01:13:16.637Z,0.00
2018-09-16T01:14:16.623Z,0.00
2018-09-16T01:15:16.595Z,0.00
2018-09-16T01:16:16.575Z,0.00
2018-09-16T01:17:16.561Z,0.00
2018-09-16T01:18:16.543Z,0.00
2018-09-16T01:19:16.525Z,0.00
2018-09-16T01:20:16.498Z,0.00
2018-09-16T01:21:16.481Z,0.00
2018-09-16T01:22:16.461Z,0.00
2018-09-16T01:23:16.440Z,0.00
2018-09-16T01:24:16.422Z,0.00
2018-09-16T01:25:16.404Z,0.00
2018-09-16T01:26:16.385Z,0.00
2018-09-16T01:27:16.364Z,0.00
2018-09-16T01:28:16.347Z,0.00
2018-09-16T01:29:16.327Z,0.00
2018-09-16T01:30:16.307Z,0.00
2018-09-16T01:31:16.287Z,0.00
2018-09-16T01:32:16.273Z,0.00
2018-09-16T01:33:16.249Z,0.00
2018-09-16T01:34:16.234Z,0.00
2018-09-16T01:35:16.211Z,0.00
2018-09-16T01:36:16.191Z,0.00
2018-09-16T01:37:16.173Z,0.00
2018-09-16T01:38:16.156Z,0.00
2018-09-16T01:39:16.136Z,0.00
2018-09-16T01:40:16.125Z,0.00
2018-09-16T01:41:16.100Z,0.00
2018-09-16T01:42:16.079Z,0.00
2018-09-16T01:43:16.056Z,0.00
2018-09-16T01:44:16.036Z,0.00
2018-09-16T01:45:16.022Z,0.00
2018-09-16T01:46:16.003Z,0.00
2018-09-16T01:47:15.979Z,0.00
2018-09-16T01:48:15.959Z,0.00
2018-09-16T01:49:15.944Z,0.00
2018-09-16T01:50:15.926Z,0.00
2018-09-16T01:51:15.902Z,0.00
2018-09-16T01:52:15.885Z,0.00
2018-09-16T01:53:15.866Z,0.00
2018-09-16T01:54:15.849Z,0.00
2018-09-16T01:55:15.828Z,0.00
2018-09-16T01:56:15.811Z,0.00
2018-09-16T01:57:15.786Z,0.00
2018-09-16T01:58:15.770Z,0.00
2018-09-16T01:59:15.750Z,0.00
2018-09-16T02:00:15.733Z,0.00
2018-09-16T02:01:15.710Z,0.00
2018-09-16T02:02:15.696Z,0.00
2018-09-16T02:03:15.672Z,0.00
2018-09-16T02:04:15.652Z,0.00
2018-09-16T02:05:15.637Z,0.00
2018-09-16T02:06:15.618Z,0.00
2018-09-16T02:07:15.595Z,0.00
2018-09-16T02:08:15.579Z,0.00
2018-09-16T02:09:15.557Z,0.00
2018-09-16T02:10:15.537Z,0.00
2018-09-16T02:11:15.518Z,0.00
2018-09-16T02:12:15.499Z,0.00
2018-09-16T02:13:15.479Z,0.00
2018-09-16T02:14:15.462Z,0.00
2018-09-16T02:15:15.441Z,0.00
2018-09-16T02:16:15.422Z,0.00
2018-09-16T02:17:15.406Z,0.00
2018-09-16T02:18:15.386Z,0.00
2018-09-16T02:19:15.367Z,0.00
2018-09-16T02:20:15.348Z,0.00
2018-09-16T02:21:15.324Z,0.00
2018-09-16T02:22:15.307Z,0.00
2018-09-16T02:23:15.287Z,0.00
2018-09-16T02:24:15.268Z,0.00
2018-09-16T02:25:15.251Z,0.00
2018-09-16T02:26:15.232Z,0.00
2018-09-16T02:27:15.209Z,0.00
2018-09-16T02:28:15.190Z,0.00
2018-09-16T02:29:15.172Z,0.00
2018-09-16T02:30:15.153Z,0.00
2018-09-16T02:31:15.135Z,0.00
2018-09-16T02:32:15.112Z,0.00
2018-09-16T02:33:15.094Z,0.00
2018-09-16T02:34:15.082Z,0.00
2018-09-16T02:35:15.054Z,0.00
2018-09-16T02:36:15.037Z,0.00
2018-09-16T02:37:15.025Z,0.00
2018-09-16T02:38:14.999Z,0.00
2018-09-16T02:39:14.976Z,0.00
2018-09-16T02:40:14.956Z,0.00
2018-09-16T02:41:14.989Z,0.00
2018-09-16T02:42:14.923Z,0.00
2018-09-16T02:43:14.960Z,0.00
2018-09-16T02:44:14.882Z,0.00
2018-09-16T02:45:14.863Z,0.00
2018-09-16T02:46:14.852Z,0.00
2018-09-16T02:47:14.823Z,0.00
2018-09-16T02:48:14.804Z,0.00
2018-09-16T02:49:14.793Z,0.00
2018-09-16T02:50:14.776Z,0.00
2018-09-16T02:51:14.746Z,0.00
2018-09-16T02:52:14.726Z,0.00
2018-09-16T02:53:14.708Z,0.00
2018-09-16T02:54:14.692Z,0.00
2018-09-16T02:55:14.669Z,0.00
2018-09-16T02:56:14.653Z,0.00
2018-09-16T02:57:14.629Z,0.00
2018-09-16T02:58:14.611Z,0.00
2018-09-16T02:59:14.591Z,0.00
2018-09-16T03:00:14.573Z,0.00
2018-09-16T03:01:14.557Z,0.00
2018-09-16T03:02:14.539Z,0.00
2018-09-16T03:03:14.518Z,0.00
2018-09-16T03:04:14.494Z,0.00
2018-09-16T03:05:14.478Z,0.00
2018-09-16T03:06:14.455Z,0.00
2018-09-16T03:07:14.433Z,0.00
2018-09-16T03:08:14.421Z,0.00
2018-09-16T03:09:14.396Z,0.00
2018-09-16T03:10:14.376Z,0.00
2018-09-16T03:11:14.356Z,0.00
2018-09-16T03:12:14.339Z,0.00
2018-09-16T03:13:14.320Z,0.00
2018-09-16T03:14:14.300Z,0.00
2018-09-16T03:15:14.279Z,0.00
2018-09-16T03:16:14.260Z,0.00
2018-09-16T03:17:14.241Z,0.00
2018-09-16T03:18:14.225Z,0.00
2018-09-16T03:19:14.208Z,0.00
2018-09-16T03:20:14.185Z,0.00
2018-09-16T03:21:14.164Z,0.00
2018-09-16T03:22:14.145Z,0.00
2018-09-16T03:23:14.122Z,0.00
2018-09-16T03:24:14.107Z,0.00
2018-09-16T03:25:14.086Z,0.00
2018-09-16T03:26:14.067Z,0.00
2018-09-16T03:27:14.048Z,0.00
2018-09-16T03:28:14.029Z,0.00
2018-09-16T03:29:14.008Z,0.00
2018-09-16T03:30:13.992Z,0.00
2018-09-16T03:31:13.967Z,0.00
2018-09-16T03:32:13.948Z,0.00
2018-09-16T03:33:13.930Z,0.00
2018-09-16T03:34:13.910Z,0.00
2018-09-16T03:35:13.889Z,0.00
2018-09-16T03:36:13.872Z,0.00
2018-09-16T03:37:13.851Z,0.00
2018-09-16T03:38:13.833Z,0.00
2018-09-16T03:39:13.813Z,0.00
2018-09-16T03:40:13.796Z,0.00
2018-09-16T03:41:13.773Z,0.00
2018-09-16T03:42:13.757Z,0.00
2018-09-16T03:43:13.732Z,0.00
2018-09-16T03:44:13.719Z,0.00
2018-09-16T03:45:13.699Z,0.00
2018-09-16T03:46:13.677Z,0.00
2018-09-16T03:47:13.657Z,0.00
2018-09-16T03:48:13.637Z,0.00
2018-09-16T03:49:13.619Z,0.00
2018-09-16T03:50:13.597Z,0.00
2018-09-16T03:51:13.579Z,0.00
2018-09-16T03:52:13.562Z,0.00
2018-09-16T03:53:13.539Z,0.00
2018-09-16T03:54:13.522Z,0.00
2018-09-16T03:55:13.500Z,0.00
2018-09-16T03:56:13.485Z,0.00
2018-09-16T03:57:13.463Z,0.00
2018-09-16T03:58:13.453Z,0.00
2018-09-16T03:59:13.426Z,0.00
2018-09-16T04:00:13.416Z,0.00
2018-09-16T04:01:13.384Z,0.00
2018-09-16T04:02:13.364Z,0.00
2018-09-16T04:03:13.345Z,0.00
2018-09-16T04:04:13.325Z,0.00
2018-09-16T04:05:13.309Z,0.00
2018-09-16T04:06:13.286Z,0.00
2018-09-16T04:07:13.267Z,0.00
2018-09-16T04:08:13.248Z,0.00
2018-09-16T04:09:13.230Z,0.00
2018-09-16T04:10:13.210Z,0.00
2018-09-16T04:11:13.189Z,0.00
2018-09-16T04:12:13.168Z,0.00
2018-09-16T04:13:13.149Z,0.00
2018-09-16T04:14:13.132Z,0.00
2018-09-16T04:15:13.111Z,0.00
2018-09-16T04:16:13.092Z,0.00
2018-09-16T04:17:13.071Z,0.00
2018-09-16T04:18:13.052Z,0.00
2018-09-16T04:19:13.033Z,0.00
2018-09-16T04:20:13.017Z,0.00
2018-09-16T04:21:13.085Z,0.00
2018-09-16T04:22:12.975Z,0.00
2018-09-16T04:23:12.953Z,0.00
2018-09-16T04:24:12.935Z,0.00
2018-09-16T04:25:12.914Z,0.00
2018-09-16T04:26:12.899Z,0.00
2018-09-16T04:27:12.875Z,0.00
2018-09-16T04:28:12.855Z,0.00
2018-09-16T04:29:12.837Z,0.00
2018-09-16T04:30:12.816Z,0.00
2018-09-16T04:31:12.797Z,0.00
2018-09-16T04:32:12.778Z,0.00
2018-09-16T04:33:12.831Z,0.00
2018-09-16T04:34:12.739Z,0.00
2018-09-16T04:35:12.715Z,0.00
2018-09-16T04:36:12.703Z,0.00
2018-09-16T04:37:12.679Z,0.00
2018-09-16T04:38:12.662Z,0.00
2018-09-16T04:39:12.637Z,0.00
2018-09-16T04:40:12.619Z,0.00
2018-09-16T04:41:12.602Z,0.00
2018-09-16T04:42:12.583Z,0.00
2018-09-16T04:43:12.561Z,0.00
2018-09-16T04:44:12.544Z,0.00
2018-09-16T04:45:12.520Z,0.00
2018-09-16T04:46:12.502Z,0.00
2018-09-16T04:47:12.482Z,0.00
2018-09-16T04:48:12.473Z,0.00
2018-09-16T04:49:12.443Z,0.00
2018-09-16T04:50:12.424Z,0.00
2018-09-16T04:51:12.407Z,0.00
2018-09-16T04:52:12.385Z,0.00
2018-09-16T04:53:12.364Z,0.00
2018-09-16T04:54:12.345Z,0.00
2018-09-16T04:55:12.329Z,0.00
2018-09-16T04:56:12.303Z,0.00
2018-09-16T04:57:12.285Z,0.00
2018-09-16T04:58:12.267Z,0.00
2018-09-16T04:59:12.245Z,0.00
2018-09-16T05:00:12.233Z,0.00
2018-09-16T05:01:12.271Z,0.00
2018-09-16T05:02:12.186Z,0.00
2018-09-16T05:03:12.181Z,0.00
2018-09-16T05:04:12.156Z,0.00
2018-09-16T05:05:12.127Z,0.00
2018-09-16T05:06:12.112Z,0.00
2018-09-16T05:07:12.092Z,0.00
2018-09-16T05:08:12.066Z,0.00
2018-09-16T05:09:12.045Z,0.00
2018-09-16T05:10:12.027Z,0.00
2018-09-16T05:11:12.011Z,0.00
2018-09-16T05:12:11.986Z,0.00
2018-09-16T05:13:11.968Z,0.00
2018-09-16T05:14:11.949Z,0.00
2018-09-16T05:15:11.928Z,0.00
2018-09-16T05:16:11.908Z,0.00
2018-09-16T05:17:11.889Z,0.00
2018-09-16T05:18:11.871Z,0.00
2018-09-16T05:19:11.849Z,0.00
2018-09-16T05:20:11.830Z,0.00
2018-09-16T05:21:11.816Z,0.00
2018-09-16T05:22:11.792Z,0.00
2018-09-16T05:23:11.773Z,0.00
2018-09-16T05:24:11.751Z,0.00
2018-09-16T05:25:11.731Z,0.00
2018-09-16T05:26:11.710Z,0.00
2018-09-16T05:27:11.698Z,0.00
2018-09-16T05:28:11.673Z,0.00
2018-09-16T05:29:11.652Z,0.00
2018-09-16T05:30:11.631Z,0.00
2018-09-16T05:31:11.620Z,0.00
2018-09-16T05:32:11.591Z,0.00
2018-09-16T05:33:11.573Z,0.00
2018-09-16T05:34:11.554Z,0.00
2018-09-16T05:35:11.538Z,0.00
2018-09-16T05:36:11.521Z,0.00
2018-09-16T05:37:11.493Z,0.00
2018-09-16T05:38:11.475Z,0.00
2018-09-16T05:39:11.452Z,0.00
2018-09-16T05:40:11.434Z,0.00
2018-09-16T05:41:11.417Z,0.00
2018-09-16T05:42:11.400Z,0.00
2018-09-16T05:43:11.408Z,0.00
2018-09-16T05:44:11.358Z,0.00
2018-09-16T05:45:11.335Z,0.00
2018-09-16T05:46:11.319Z,0.00
2018-09-16T05:47:11.295Z,0.00
2018-09-16T05:48:11.284Z,0.00
2018-09-16T05:49:11.258Z,0.00
2018-09-16T05:50:11.254Z,0.00
2018-09-16T05:51:11.219Z,0.00
2018-09-16T05:52:11.196Z,0.00
2018-09-16T05:53:11.217Z,0.00
2018-09-16T05:54:11.162Z,0.00
2018-09-16T05:55:11.139Z,0.00
2018-09-16T05:56:11.119Z,0.00
2018-09-16T05:57:11.117Z,5.63
2018-09-16T05:58:11.081Z,5.63
2018-09-16T05:59:11.177Z,5.63
2018-09-16T06:00:11.046Z,5.63
2018-09-16T06:01:11.020Z,5.63
2018-09-16T06:02:11.013Z,5.63
2018-09-16T06:03:10.986Z,5.63
2018-09-16T06:04:10.963Z,5.63
2018-09-16T06:05:11.018Z,5.63
2018-09-16T06:06:10.923Z,5.63
2018-09-16T06:07:10.917Z,5.63
2018-09-16T06:08:10.884Z,5.63
2018-09-16T06:09:10.862Z,5.63
2018-09-16T06:10:10.844Z,5.63
2018-09-16T06:11:10.835Z,5.63
2018-09-16T06:12:10.806Z,5.63
2018-09-16T06:13:10.794Z,5.63
2018-09-16T06:14:10.768Z,5.63
2018-09-16T06:15:10.745Z,5.63
2018-09-16T06:16:10.729Z,5.63
2018-09-16T06:17:10.706Z,5.63
2018-09-16T06:18:10.689Z,5.63
2018-09-16T06:19:10.666Z,5.63
2018-09-16T06:20:10.692Z,5.63
2018-09-16T06:21:10.634Z,5.63
2018-09-16T06:22:10.611Z,5.63
2018-09-16T06:23:10.588Z,5.63
2018-09-16T06:24:10.569Z,5.63
2018-09-16T06:25:10.550Z,5.63
2018-09-16T06:26:10.534Z,5.63
2018-09-16T06:27:10.515Z,5.63
2018-09-16T06:28:10.496Z,5.63
2018-09-16T06:29:10.474Z,5.63
2018-09-16T06:30:10.457Z,5.63
2018-09-16T06:31:10.432Z,5.63
2018-09-16T06:32:10.411Z,5.63
2018-09-16T06:33:10.396Z,5.63
2018-09-16T06:34:10.375Z,5.63
2018-09-16T06:35:10.353Z,5.63
2018-09-16T06:36:10.338Z,5.63
2018-09-16T06:37:10.314Z,5.63
2018-09-16T06:38:10.298Z,5.63
2018-09-16T06:39:10.275Z,5.63
2018-09-16T06:40:10.258Z,5.63
2018-09-16T06:41:10.268Z,5.63
2018-09-16T06:42:10.221Z,5.63
2018-09-16T06:43:10.196Z,5.63
2018-09-16T06:44:10.187Z,5.63
2018-09-16T06:45:10.159Z,5.63
2018-09-16T06:46:10.160Z,5.63
2018-09-16T06:47:10.127Z,11.25
2018-09-16T06:48:10.106Z,5.63
2018-09-16T06:49:10.085Z,11.25
2018-09-16T06:50:10.066Z,11.25
2018-09-16T06:51:10.050Z,11.25
2018-09-16T06:52:10.029Z,11.25
2018-09-16T06:53:10.009Z,16.88
2018-09-16T06:54:09.993Z,16.88
2018-09-16T06:55:09.967Z,16.88
2018-09-16T06:56:09.948Z,16.88
2018-09-16T06:57:09.929Z,16.88
2018-09-16T06:58:09.908Z,16.88
2018-09-16T06:59:09.889Z,22.50
2018-09-16T07:00:09.871Z,22.50
2018-09-16T07:01:09.862Z,22.50
2018-09-16T07:02:09.833Z,22.50
2018-09-16T07:03:09.813Z,22.50
2018-09-16T07:04:09.794Z,22.50
2018-09-16T07:05:09.781Z,22.50
2018-09-16T07:06:09.756Z,22.50
2018-09-16T07:07:09.739Z,22.50
2018-09-16T07:08:09.724Z,22.50
2018-09-16T07:09:09.701Z,22.50
2018-09-16T07:10:09.690Z,22.50
2018-09-16T07:11:09.661Z,22.50
2018-09-16T07:12:09.646Z,22.50
2018-09-16T07:13:09.622Z,22.50
2018-09-16T07:14:09.615Z,22.50
2018-09-16T07:15:09.592Z,22.50
2018-09-16T07:16:09.569Z,22.50
2018-09-16T07:17:09.546Z,22.50
2018-09-16T07:18:09.533Z,22.50
2018-09-16T07:19:09.509Z,22.50
2018-09-16T07:20:09.551Z,22.50
2018-09-16T07:21:09.471Z,22.50
2018-09-16T07:22:09.457Z,22.50
2018-09-16T07:23:09.439Z,22.50
2018-09-16T07:24:09.418Z,22.50
2018-09-16T07:25:09.403Z,28.13
2018-09-16T07:26:09.377Z,22.50
2018-09-16T07:27:09.374Z,22.50
2018-09-16T07:28:09.350Z,22.50
2018-09-16T07:29:09.323Z,28.13
2018-09-16T07:30:09.303Z,28.13
2018-09-16T07:31:09.283Z,28.13
2018-09-16T07:32:09.263Z,28.13
2018-09-16T07:33:09.255Z,33.75
2018-09-16T07:34:09.234Z,33.75
2018-09-16T07:35:09.207Z,28.13
2018-09-16T07:36:09.188Z,33.75
2018-09-16T07:37:09.180Z,33.75
2018-09-16T07:38:09.156Z,33.75
2018-09-16T07:39:09.132Z,33.75
2018-09-16T07:40:09.110Z,33.75
2018-09-16T07:41:09.093Z,33.75
2018-09-16T07:42:09.074Z,33.75
2018-09-16T07:43:09.059Z,33.75
2018-09-16T07:44:09.049Z,33.75
2018-09-16T07:45:09.018Z,39.38
2018-09-16T07:46:09.002Z,39.38
2018-09-16T07:47:08.980Z,33.75
2018-09-16T07:48:08.963Z,39.38
2018-09-16T07:49:08.954Z,39.38
2018-09-16T07:50:08.928Z,39.38
2018-09-16T07:51:08.913Z,39.38
2018-09-16T07:52:08.889Z,39.38
2018-09-16T07:53:08.880Z,39.38
2018-09-16T07:54:08.852Z,39.38
2018-09-16T07:55:08.833Z,39.38
2018-09-16T07:56:08.814Z,39.38
2018-09-16T07:57:08.798Z,39.38
2018-09-16T07:58:08.777Z,39.38
2018-09-16T07:59:08.759Z,39.38
2018-09-16T08:00:08.743Z,39.38
2018-09-16T08:01:08.728Z,45.00
2018-09-16T08:02:08.715Z,39.38
2018-09-16T08:03:08.687Z,39.38
2018-09-16T08:04:08.667Z,39.38
2018-09-16T08:05:08.651Z,39.38
2018-09-16T08:06:08.707Z,39.38
2018-09-16T08:07:08.618Z,45.00
2018-09-16T08:08:08.602Z,45.00
2018-09-16T08:09:08.575Z,45.00
2018-09-16T08:10:08.558Z,45.00
2018-09-16T08:11:08.539Z,45.00
2018-09-16T08:12:08.523Z,45.00
2018-09-16T08:13:08.504Z,45.00
2018-09-16T08:14:08.495Z,45.00
2018-09-16T08:15:08.467Z,50.63
2018-09-16T08:16:08.479Z,45.00
2018-09-16T08:17:08.431Z,50.63
2018-09-16T08:18:08.411Z,50.63
2018-09-16T08:19:08.392Z,50.63
2018-09-16T08:20:08.376Z,50.63
2018-09-16T08:21:08.456Z,45.00
2018-09-16T08:22:08.340Z,45.00
2018-09-16T08:23:08.323Z,39.38
2018-09-16T08:24:08.305Z,39.38
2018-09-16T08:25:08.293Z,39.38
2018-09-16T08:26:08.275Z,39.38
2018-09-16T08:27:08.248Z,39.38
2018-09-16T08:28:08.234Z,39.38
2018-09-16T08:29:08.215Z,33.75
2018-09-16T08:30:08.196Z,39.38
2018-09-16T08:31:08.179Z,39.38
2018-09-16T08:32:08.162Z,39.38
2018-09-16T08:33:08.152Z,39.38
2018-09-16T08:34:08.123Z,33.75
2018-09-16T08:35:08.106Z,39.38
2018-09-16T08:36:08.092Z,33.75
2018-09-16T08:37:08.072Z,39.38
2018-09-16T08:38:08.154Z,39.38
2018-09-16T08:39:08.035Z,45.00
2018-09-16T08:40:08.031Z,39.38
2018-09-16T08:41:07.999Z,39.38
2018-09-16T08:42:07.987Z,45.00
2018-09-16T08:43:07.974Z,45.00
2018-09-16T08:44:07.947Z,39.38
2018-09-16T08:45:07.928Z,33.75
2018-09-16T08:46:07.914Z,22.50
2018-09-16T08:47:07.894Z,22.50
2018-09-16T08:48:07.878Z,22.50
2018-09-16T08:49:07.878Z,28.13
2018-09-16T08:50:07.843Z,22.50
2018-09-16T08:51:07.824Z,22.50
2018-09-16T08:52:07.858Z,28.13
2018-09-16T08:53:07.789Z,28.13
2018-09-16T08:54:07.773Z,33.75
2018-09-16T08:55:07.756Z,39.38
2018-09-16T08:56:07.737Z,45.00
2018-09-16T08:57:07.720Z,45.00
2018-09-16T08:58:07.757Z,45.00
2018-09-16T08:59:07.683Z,45.00
2018-09-16T09:00:07.667Z,45.00
2018-09-16T09:01:07.654Z,56.25
2018-09-16T09:02:07.638Z,50.63
2018-09-16T09:03:07.618Z,50.63
2018-09-16T09:04:07.603Z,45.00
2018-09-16T09:05:07.588Z,45.00
2018-09-16T09:06:07.571Z,45.00
2018-09-16T09:07:07.550Z,50.63
2018-09-16T09:08:07.530Z,45.00
2018-09-16T09:09:07.517Z,50.63
2018-09-16T09:10:07.504Z,45.00
2018-09-16T09:11:07.491Z,50.63
2018-09-16T09:12:07.473Z,45.00
2018-09-16T09:13:07.473Z,50.63
2018-09-16T09:14:07.435Z,50.63
2018-09-16T09:15:07.410Z,45.00
2018-09-16T09:16:07.399Z,50.63
2018-09-16T09:17:07.380Z,50.63
2018-09-16T09:18:07.360Z,50.63
2018-09-16T09:19:07.350Z,50.63
2018-09-16T09:20:07.326Z,56.25
2018-09-16T09:21:07.307Z,56.25
2018-09-16T09:22:07.611Z,56.25
2018-09-16T09:23:07.280Z,56.25
2018-09-16T09:24:07.257Z,50.63
2018-09-16T09:25:07.241Z,50.63
2018-09-16T09:26:07.240Z,45.00
2018-09-16T09:27:07.214Z,45.00
2018-09-16T09:28:07.202Z,39.38
2018-09-16T09:29:07.209Z,50.63
2018-09-16T09:30:07.162Z,56.25
2018-09-16T09:31:07.140Z,56.25
2018-09-16T09:32:07.124Z,61.88
2018-09-16T09:33:07.109Z,61.88
2018-09-16T09:34:07.096Z,61.88
2018-09-16T09:35:07.079Z,61.88
2018-09-16T09:36:07.059Z,61.88
2018-09-16T09:37:07.042Z,56.25
2018-09-16T09:38:07.096Z,61.88
2018-09-16T09:39:07.010Z,61.88
2018-09-16T09:40:06.998Z,61.88
2018-09-16T09:41:06.988Z,61.88
2018-09-16T09:42:06.974Z,56.25
2018-09-16T09:43:06.942Z,56.25
2018-09-16T09:44:06.930Z,56.25
2018-09-16T09:45:06.912Z,45.00
2018-09-16T09:46:06.900Z,56.25
2018-09-16T09:47:06.895Z,56.25
2018-09-16T09:48:06.863Z,56.25
2018-09-16T09:49:06.847Z,50.63
2018-09-16T09:50:06.828Z,56.25
2018-09-16T09:51:06.870Z,56.25
2018-09-16T09:52:06.802Z,56.25
2018-09-16T09:53:06.782Z,56.25
2018-09-16T09:54:06.773Z,56.25
2018-09-16T09:55:06.752Z,56.25
2018-09-16T09:56:06.729Z,56.25
2018-09-16T09:57:06.718Z,56.25
2018-09-16T09:58:06.698Z,39.38
2018-09-16T09:59:06.768Z,56.25
2018-09-16T10:00:06.665Z,56.25
2018-09-16T10:01:06.648Z,45.00
2018-09-16T10:02:06.641Z,50.63
2018-09-16T10:03:06.616Z,45.00
2018-09-16T10:04:06.605Z,50.63
2018-09-16T10:05:06.585Z,45.00
2018-09-16T10:06:06.625Z,50.63
2018-09-16T10:07:06.550Z,56.25
2018-09-16T10:08:06.537Z,56.25
2018-09-16T10:09:06.520Z,56.25
2018-09-16T10:10:06.504Z,56.25
2018-09-16T10:11:06.487Z,50.63
2018-09-16T10:12:06.474Z,45.00
2018-09-16T10:13:06.456Z,50.63
2018-09-16T10:14:06.440Z,50.63
2018-09-16T10:15:06.423Z,56.25
2018-09-16T10:16:06.415Z,56.25
2018-09-16T10:17:06.392Z,56.25
2018-09-16T10:18:06.383Z,61.88
2018-09-16T10:19:06.366Z,61.88
2018-09-16T10:20:06.347Z,61.88
2018-09-16T10:21:06.330Z,61.88
2018-09-16T10:22:06.310Z,61.88
2018-09-16T10:23:06.294Z,61.88
2018-09-16T10:24:06.399Z,56.25
2018-09-16T10:25:06.268Z,56.25
2018-09-16T10:26:06.255Z,61.88
2018-09-16T10:27:06.233Z,56.25
2018-09-16T10:28:06.215Z,67.50
2018-09-16T10:29:06.199Z,67.50
2018-09-16T10:30:06.184Z,61.88
2018-09-16T10:31:06.177Z,61.88
2018-09-16T10:32:06.161Z,67.50
2018-09-16T10:33:06.141Z,61.88
2018-09-16T10:34:06.132Z,56.25
2018-09-16T10:35:06.112Z,56.25
2018-09-16T10:36:06.100Z,56.25
2018-09-16T10:37:06.077Z,61.88
2018-09-16T10:38:06.060Z,56.25
2018-09-16T10:39:06.044Z,61.88
2018-09-16T10:40:06.040Z,61.88
2018-09-16T10:41:06.014Z,61.88
2018-09-16T10:42:06.003Z,56.25
2018-09-16T10:43:05.985Z,67.50
2018-09-16T10:44:05.982Z,67.50
2018-09-16T10:45:05.954Z,67.50
2018-09-16T10:46:05.948Z,67.50
2018-09-16T10:47:05.922Z,56.25
2018-09-16T10:48:05.905Z,50.63
2018-09-16T10:49:05.897Z,56.25
2018-09-16T10:50:05.882Z,50.63
2018-09-16T10:51:05.862Z,50.63
2018-09-16T10:52:05.846Z,56.25
2018-09-16T10:53:05.831Z,50.63
2018-09-16T10:54:05.815Z,39.38
2018-09-16T10:55:05.802Z,39.38
2018-09-16T10:56:05.783Z,39.38
2018-09-16T10:57:05.789Z,45.00
2018-09-16T10:58:05.768Z,56.25
2018-09-16T10:59:05.752Z,56.25
2018-09-16T11:00:05.739Z,56.25
2018-09-16T11:01:05.707Z,56.25
2018-09-16T11:02:05.693Z,56.25
2018-09-16T11:03:05.680Z,50.63
2018-09-16T11:04:05.666Z,45.00
2018-09-16T11:05:05.654Z,39.38
2018-09-16T11:06:05.636Z,45.00
2018-09-16T11:07:05.616Z,50.63
2018-09-16T11:08:05.615Z,56.25
2018-09-16T11:09:05.587Z,61.88
2018-09-16T11:10:05.569Z,56.25
2018-09-16T11:11:05.555Z,56.25
2018-09-16T11:12:05.538Z,56.25
2018-09-16T11:13:05.533Z,61.88
2018-09-16T11:14:05.509Z,61.88
2018-09-16T11:15:05.492Z,61.88
2018-09-16T11:16:05.483Z,61.88
2018-09-16T11:17:05.466Z,61.88
2018-09-16T11:18:05.451Z,61.88
2018-09-16T11:19:05.450Z,67.50
2018-09-16T11:20:05.416Z,61.88
2018-09-16T11:21:05.405Z,61.88
2018-09-16T11:22:05.461Z,56.25
2018-09-16T11:23:05.372Z,61.88
2018-09-16T11:24:05.356Z,61.88
2018-09-16T11:25:05.345Z,61.88
2018-09-16T11:26:05.327Z,45.00
2018-09-16T11:27:05.310Z,45.00
2018-09-16T11:28:05.309Z,45.00
2018-09-16T11:29:05.296Z,45.00
2018-09-16T11:30:05.346Z,28.13
2018-09-16T11:31:05.263Z,61.88
2018-09-16T11:32:05.250Z,56.25
2018-09-16T11:33:05.231Z,56.25
2018-09-16T11:34:05.212Z,61.88
2018-09-16T11:35:05.201Z,56.25
2018-09-16T11:36:05.187Z,50.63
2018-09-16T11:37:05.163Z,45.00
2018-09-16T11:38:05.147Z,45.00
2018-09-16T11:39:05.131Z,45.00
2018-09-16T11:40:05.122Z,50.63
2018-09-16T11:41:05.106Z,45.00
2018-09-16T11:42:05.093Z,45.00
2018-09-16T11:43:05.077Z,45.00
2018-09-16T11:44:05.060Z,45.00
2018-09-16T11:45:05.046Z,45.00
2018-09-16T11:46:05.031Z,45.00
2018-09-16T11:47:05.034Z,45.00
2018-09-16T11:48:04.995Z,50.63
2018-09-16T11:49:04.998Z,56.25
2018-09-16T11:50:04.973Z,56.25
2018-09-16T11:51:04.950Z,61.88
2018-09-16T11:52:04.938Z,61.88
2018-09-16T11:53:04.925Z,56.25
2018-09-16T11:54:04.903Z,56.25
2018-09-16T11:55:04.893Z,45.00
2018-09-16T11:56:04.878Z,45.00
2018-09-16T11:57:04.857Z,45.00
2018-09-16T11:58:04.848Z,45.00
2018-09-16T11:59:04.831Z,45.00
2018-09-16T12:00:04.819Z,45.00
2018-09-16T12:01:04.797Z,45.00
2018-09-16T12:02:04.897Z,45.00
2018-09-16T12:03:04.774Z,45.00
2018-09-16T12:04:04.761Z,45.00
2018-09-16T12:05:04.743Z,33.75
2018-09-16T12:06:04.731Z,33.75
2018-09-16T12:07:04.709Z,39.38
2018-09-16T12:08:04.693Z,50.63
2018-09-16T12:09:04.691Z,50.63
2018-09-16T12:10:04.666Z,45.00
2018-09-16T12:11:04.657Z,45.00
2018-09-16T12:12:04.635Z,45.00
2018-09-16T12:13:04.618Z,45.00
2018-09-16T12:14:04.604Z,45.00
2018-09-16T12:15:04.589Z,50.63
2018-09-16T12:16:04.628Z,50.63
2018-09-16T12:17:04.557Z,45.00
2018-09-16T12:18:04.545Z,45.00
2018-09-16T12:19:04.536Z,45.00
2018-09-16T12:20:04.520Z,45.00
2018-09-16T12:21:04.501Z,45.00
2018-09-16T12:22:04.485Z,45.00
2018-09-16T12:23:04.479Z,50.63
2018-09-16T12:24:04.460Z,45.00
2018-09-16T12:25:04.438Z,50.63
2018-09-16T12:26:04.429Z,56.25
2018-09-16T12:27:04.407Z,50.63
2018-09-16T12:28:04.399Z,56.25
2018-09-16T12:29:04.376Z,50.63
2018-09-16T12:30:04.373Z,56.25
2018-09-16T12:31:04.355Z,56.25
2018-09-16T12:32:04.333Z,56.25
2018-09-16T12:33:04.328Z,56.25
2018-09-16T12:34:04.305Z,56.25
2018-09-16T12:35:04.292Z,50.63
2018-09-16T12:36:04.272Z,50.63
2018-09-16T12:37:04.257Z,50.63
2018-09-16T12:38:04.246Z,50.63
2018-09-16T12:39:04.231Z,45.00
2018-09-16T12:40:04.214Z,45.00
2018-09-16T12:41:04.201Z,45.00
2018-09-16T12:42:04.207Z,50.63
2018-09-16T12:43:04.170Z,50.63
2018-09-16T12:44:04.156Z,50.63
2018-09-16T12:45:04.144Z,50.63
2018-09-16T12:46:04.125Z,50.63
2018-09-16T12:47:04.112Z,50.63
2018-09-16T12:48:04.104Z,50.63
2018-09-16T12:49:04.091Z,56.25
2018-09-16T12:50:04.077Z,56.25
2018-09-16T12:51:04.052Z,50.63
2018-09-16T12:52:04.038Z,56.25
2018-09-16T12:53:04.023Z,56.25
2018-09-16T12:54:04.013Z,56.25
2018-09-16T12:55:04.040Z,50.63
2018-09-16T12:56:03.987Z,61.88
2018-09-16T12:57:04.027Z,56.25
2018-09-16T12:58:03.959Z,56.25
2018-09-16T12:59:03.943Z,56.25
2018-09-16T13:00:03.921Z,56.25
2018-09-16T13:01:03.913Z,56.25
2018-09-16T13:02:03.897Z,56.25
2018-09-16T13:03:03.887Z,56.25
2018-09-16T13:04:03.869Z,56.25
2018-09-16T13:05:03.848Z,50.63